sensor_id;sensor_type;location;lat;lon;timestamp;P1;durP1;ratioP1;P2;durP2;ratioP2
18302;SDS011;9277;37.980;23.748;2023-07-31T00:00:09;3.15;;;2.85;;
18302;SDS011;9277;37.980;23.748;2023-07-31T00:02:36;3.58;;;2.80;;
18302;SDS011;9277;37.980;23.748;2023-07-31T00:05:03;3.03;;;2.70;;
18302;SDS011;9277;37.980;23.748;2023-07-31T00:07:30;4.30;;;2.63;;
18302;SDS011;9277;37.980;23.748;2023-07-31T00:09:57;3.15;;;2.95;;
18302;SDS011;9277;37.980;23.748;2023-07-31T00:12:23;3.08;;;2.78;;
18302;SDS011;9277;37.980;23.748;2023-07-31T00:14:50;3.17;;;2.88;;
18302;SDS011;9277;37.980;23.748;2023-07-31T00:17:19;6.18;;;3.05;;
18302;SDS011;9277;37.980;23.748;2023-07-31T00:19:46;2.90;;;2.60;;
18302;SDS011;9277;37.980;23.748;2023-07-31T00:22:15;3.03;;;2.65;;
18302;SDS011;9277;37.980;23.748;2023-07-31T00:24:42;5.55;;;2.63;;
18302;SDS011;9277;37.980;23.748;2023-07-31T00:27:09;2.65;;;2.45;;
18302;SDS011;9277;37.980;23.748;2023-07-31T00:29:36;2.80;;;2.53;;
18302;SDS011;9277;37.980;23.748;2023-07-31T00:32:03;2.65;;;2.47;;
18302;SDS011;9277;37.980;23.748;2023-07-31T00:34:31;2.53;;;2.33;;
18302;SDS011;9277;37.980;23.748;2023-07-31T00:36:58;3.08;;;2.38;;
18302;SDS011;9277;37.980;23.748;2023-07-31T00:39:25;4.63;;;2.78;;
18302;SDS011;9277;37.980;23.748;2023-07-31T00:41:51;2.17;;;2.08;;
18302;SDS011;9277;37.980;23.748;2023-07-31T00:44:18;2.53;;;2.35;;
18302;SDS011;9277;37.980;23.748;2023-07-31T00:46:45;2.72;;;2.47;;
18302;SDS011;9277;37.980;23.748;2023-07-31T00:49:12;3.00;;;2.80;;
18302;SDS011;9277;37.980;23.748;2023-07-31T00:51:40;5.03;;;2.65;;
18302;SDS011;9277;37.980;23.748;2023-07-31T00:54:07;3.60;;;2.35;;
18302;SDS011;9277;37.980;23.748;2023-07-31T00:56:34;3.00;;;2.75;;
18302;SDS011;9277;37.980;23.748;2023-07-31T00:59:01;3.08;;;2.72;;
18302;SDS011;9277;37.980;23.748;2023-07-31T01:01:27;4.38;;;3.20;;
18302;SDS011;9277;37.980;23.748;2023-07-31T01:03:54;4.43;;;2.83;;
18302;SDS011;9277;37.980;23.748;2023-07-31T01:06:23;8.18;;;2.92;;
18302;SDS011;9277;37.980;23.748;2023-07-31T01:08:54;4.18;;;3.10;;
18302;SDS011;9277;37.980;23.748;2023-07-31T01:11:25;3.53;;;2.92;;
18302;SDS011;9277;37.980;23.748;2023-07-31T01:13:53;3.40;;;2.63;;
18302;SDS011;9277;37.980;23.748;2023-07-31T01:16:20;2.90;;;2.65;;
18302;SDS011;9277;37.980;23.748;2023-07-31T01:18:46;3.80;;;2.80;;
18302;SDS011;9277;37.980;23.748;2023-07-31T01:21:18;4.13;;;2.83;;
18302;SDS011;9277;37.980;23.748;2023-07-31T01:24:01;3.28;;;2.97;;
18302;SDS011;9277;37.980;23.748;2023-07-31T01:26:34;4.13;;;2.72;;
18302;SDS011;9277;37.980;23.748;2023-07-31T01:29:01;2.67;;;2.47;;
18302;SDS011;9277;37.980;23.748;2023-07-31T01:31:30;3.28;;;2.50;;
18302;SDS011;9277;37.980;23.748;2023-07-31T01:33:57;4.30;;;2.88;;
18302;SDS011;9277;37.980;23.748;2023-07-31T01:36:25;3.17;;;2.65;;
18302;SDS011;9277;37.980;23.748;2023-07-31T01:38:51;3.00;;;2.80;;
18302;SDS011;9277;37.980;23.748;2023-07-31T01:41:18;2.63;;;2.42;;
18302;SDS011;9277;37.980;23.748;2023-07-31T01:43:47;4.20;;;2.90;;
18302;SDS011;9277;37.980;23.748;2023-07-31T01:46:14;2.72;;;2.50;;
18302;SDS011;9277;37.980;23.748;2023-07-31T01:48:40;4.28;;;2.80;;
18302;SDS011;9277;37.980;23.748;2023-07-31T01:51:07;5.18;;;2.97;;
18302;SDS011;9277;37.980;23.748;2023-07-31T01:53:34;3.33;;;2.90;;
18302;SDS011;9277;37.980;23.748;2023-07-31T01:56:01;4.15;;;2.67;;
18302;SDS011;9277;37.980;23.748;2023-07-31T01:58:27;3.58;;;2.78;;
18302;SDS011;9277;37.980;23.748;2023-07-31T02:00:56;3.88;;;2.92;;
18302;SDS011;9277;37.980;23.748;2023-07-31T02:03:22;2.97;;;2.50;;
18302;SDS011;9277;37.980;23.748;2023-07-31T02:05:49;3.53;;;2.60;;
18302;SDS011;9277;37.980;23.748;2023-07-31T02:08:16;5.15;;;2.58;;
18302;SDS011;9277;37.980;23.748;2023-07-31T02:10:43;4.38;;;2.80;;
18302;SDS011;9277;37.980;23.748;2023-07-31T02:13:10;3.90;;;2.70;;
18302;SDS011;9277;37.980;23.748;2023-07-31T02:15:37;2.85;;;2.50;;
18302;SDS011;9277;37.980;23.748;2023-07-31T02:18:05;2.60;;;2.40;;
18302;SDS011;9277;37.980;23.748;2023-07-31T02:20:33;2.63;;;2.38;;
18302;SDS011;9277;37.980;23.748;2023-07-31T02:23:00;2.67;;;2.25;;
18302;SDS011;9277;37.980;23.748;2023-07-31T02:25:27;6.63;;;2.65;;
18302;SDS011;9277;37.980;23.748;2023-07-31T02:27:53;3.35;;;2.58;;
18302;SDS011;9277;37.980;23.748;2023-07-31T02:30:20;2.88;;;2.58;;
18302;SDS011;9277;37.980;23.748;2023-07-31T02:32:47;3.70;;;2.80;;
18302;SDS011;9277;37.980;23.748;2023-07-31T02:35:15;3.20;;;2.50;;
18302;SDS011;9277;37.980;23.748;2023-07-31T02:37:43;3.60;;;2.65;;
18302;SDS011;9277;37.980;23.748;2023-07-31T02:40:10;2.70;;;2.47;;
18302;SDS011;9277;37.980;23.748;2023-07-31T02:42:37;4.30;;;2.58;;
18302;SDS011;9277;37.980;23.748;2023-07-31T02:45:04;4.25;;;2.97;;
18302;SDS011;9277;37.980;23.748;2023-07-31T02:47:31;2.67;;;2.47;;
18302;SDS011;9277;37.980;23.748;2023-07-31T02:49:58;2.70;;;2.50;;
18302;SDS011;9277;37.980;23.748;2023-07-31T02:52:26;8.07;;;2.25;;
18302;SDS011;9277;37.980;23.748;2023-07-31T02:54:53;3.80;;;2.53;;
18302;SDS011;9277;37.980;23.748;2023-07-31T02:57:20;4.50;;;2.70;;
18302;SDS011;9277;37.980;23.748;2023-07-31T02:59:47;3.85;;;2.60;;
18302;SDS011;9277;37.980;23.748;2023-07-31T03:02:13;4.63;;;3.03;;
18302;SDS011;9277;37.980;23.748;2023-07-31T03:04:40;4.20;;;2.65;;
18302;SDS011;9277;37.980;23.748;2023-07-31T03:07:07;5.13;;;2.65;;
18302;SDS011;9277;37.980;23.748;2023-07-31T03:09:35;3.50;;;2.72;;
18302;SDS011;9277;37.980;23.748;2023-07-31T03:12:02;4.53;;;2.88;;
18302;SDS011;9277;37.980;23.748;2023-07-31T03:14:29;5.22;;;3.03;;
18302;SDS011;9277;37.980;23.748;2023-07-31T03:16:56;3.90;;;3.38;;
18302;SDS011;9277;37.980;23.748;2023-07-31T03:19:23;3.50;;;3.08;;
18302;SDS011;9277;37.980;23.748;2023-07-31T03:21:50;3.17;;;2.63;;
18302;SDS011;9277;37.980;23.748;2023-07-31T03:24:16;2.95;;;2.65;;
18302;SDS011;9277;37.980;23.748;2023-07-31T03:26:45;4.07;;;2.63;;
18302;SDS011;9277;37.980;23.748;2023-07-31T03:29:12;4.32;;;2.50;;
18302;SDS011;9277;37.980;23.748;2023-07-31T03:31:39;3.97;;;2.10;;
18302;SDS011;9277;37.980;23.748;2023-07-31T03:34:05;2.55;;;2.13;;
18302;SDS011;9277;37.980;23.748;2023-07-31T03:36:32;4.95;;;2.10;;
18302;SDS011;9277;37.980;23.748;2023-07-31T03:38:59;6.53;;;2.35;;
18302;SDS011;9277;37.980;23.748;2023-07-31T03:41:26;4.80;;;2.25;;
18302;SDS011;9277;37.980;23.748;2023-07-31T03:43:54;2.17;;;1.98;;
18302;SDS011;9277;37.980;23.748;2023-07-31T03:46:22;3.13;;;2.20;;
18302;SDS011;9277;37.980;23.748;2023-07-31T03:48:49;2.17;;;2.03;;
18302;SDS011;9277;37.980;23.748;2023-07-31T03:51:15;2.42;;;2.22;;
18302;SDS011;9277;37.980;23.748;2023-07-31T03:53:43;3.15;;;2.20;;
18302;SDS011;9277;37.980;23.748;2023-07-31T03:56:10;3.80;;;2.30;;
18302;SDS011;9277;37.980;23.748;2023-07-31T03:58:37;3.38;;;1.80;;
18302;SDS011;9277;37.980;23.748;2023-07-31T04:01:05;2.42;;;1.90;;
18302;SDS011;9277;37.980;23.748;2023-07-31T04:03:32;3.88;;;2.20;;
18302;SDS011;9277;37.980;23.748;2023-07-31T04:05:58;2.25;;;2.03;;
18302;SDS011;9277;37.980;23.748;2023-07-31T04:08:25;5.07;;;2.58;;
18302;SDS011;9277;37.980;23.748;2023-07-31T04:10:52;5.13;;;1.85;;
18302;SDS011;9277;37.980;23.748;2023-07-31T04:13:19;2.75;;;2.38;;
18302;SDS011;9277;37.980;23.748;2023-07-31T04:15:47;2.95;;;2.63;;
18302;SDS011;9277;37.980;23.748;2023-07-31T04:18:16;3.50;;;2.40;;
18302;SDS011;9277;37.980;23.748;2023-07-31T04:20:42;4.47;;;2.10;;
18302;SDS011;9277;37.980;23.748;2023-07-31T04:23:09;4.78;;;2.65;;
18302;SDS011;9277;37.980;23.748;2023-07-31T04:25:36;2.92;;;2.45;;
18302;SDS011;9277;37.980;23.748;2023-07-31T04:28:02;2.60;;;2.40;;
18302;SDS011;9277;37.980;23.748;2023-07-31T04:30:29;6.57;;;2.65;;
18302;SDS011;9277;37.980;23.748;2023-07-31T04:32:56;5.28;;;2.60;;
18302;SDS011;9277;37.980;23.748;2023-07-31T04:35:24;5.28;;;2.63;;
18302;SDS011;9277;37.980;23.748;2023-07-31T04:37:51;4.72;;;2.70;;
18302;SDS011;9277;37.980;23.748;2023-07-31T04:40:18;4.03;;;2.70;;
18302;SDS011;9277;37.980;23.748;2023-07-31T04:42:44;8.02;;;2.97;;
18302;SDS011;9277;37.980;23.748;2023-07-31T04:45:11;12.43;;;2.90;;
18302;SDS011;9277;37.980;23.748;2023-07-31T04:47:38;5.50;;;2.90;;
18302;SDS011;9277;37.980;23.748;2023-07-31T04:50:05;6.85;;;3.10;;
18302;SDS011;9277;37.980;23.748;2023-07-31T04:52:33;5.05;;;3.10;;
18302;SDS011;9277;37.980;23.748;2023-07-31T04:55:00;4.35;;;2.78;;
18302;SDS011;9277;37.980;23.748;2023-07-31T04:57:28;8.70;;;3.33;;
18302;SDS011;9277;37.980;23.748;2023-07-31T04:59:54;8.05;;;2.95;;
18302;SDS011;9277;37.980;23.748;2023-07-31T05:02:21;7.75;;;3.13;;
18302;SDS011;9277;37.980;23.748;2023-07-31T05:04:48;7.05;;;3.50;;
18302;SDS011;9277;37.980;23.748;2023-07-31T05:07:14;6.75;;;3.10;;
18302;SDS011;9277;37.980;23.748;2023-07-31T05:09:43;6.13;;;3.03;;
18302;SDS011;9277;37.980;23.748;2023-07-31T05:12:10;7.88;;;3.00;;
18302;SDS011;9277;37.980;23.748;2023-07-31T05:14:37;8.73;;;2.72;;
18302;SDS011;9277;37.980;23.748;2023-07-31T05:17:04;8.85;;;2.90;;
18302;SDS011;9277;37.980;23.748;2023-07-31T05:19:31;8.05;;;3.20;;
18302;SDS011;9277;37.980;23.748;2023-07-31T05:21:57;8.50;;;3.03;;
18302;SDS011;9277;37.980;23.748;2023-07-31T05:24:24;14.95;;;3.80;;
18302;SDS011;9277;37.980;23.748;2023-07-31T05:26:52;8.98;;;3.13;;
18302;SDS011;9277;37.980;23.748;2023-07-31T05:29:19;7.88;;;3.78;;
18302;SDS011;9277;37.980;23.748;2023-07-31T05:31:47;9.80;;;3.20;;
18302;SDS011;9277;37.980;23.748;2023-07-31T05:34:13;6.75;;;3.05;;
18302;SDS011;9277;37.980;23.748;2023-07-31T05:36:40;7.78;;;3.08;;
18302;SDS011;9277;37.980;23.748;2023-07-31T05:39:07;3.75;;;2.78;;
18302;SDS011;9277;37.980;23.748;2023-07-31T05:41:34;3.17;;;2.30;;
18302;SDS011;9277;37.980;23.748;2023-07-31T05:44:03;5.07;;;2.30;;
18302;SDS011;9277;37.980;23.748;2023-07-31T05:46:30;8.90;;;3.00;;
18302;SDS011;9277;37.980;23.748;2023-07-31T05:48:57;11.77;;;3.45;;
18302;SDS011;9277;37.980;23.748;2023-07-31T05:51:25;3.92;;;2.47;;
18302;SDS011;9277;37.980;23.748;2023-07-31T05:53:52;4.10;;;2.60;;
18302;SDS011;9277;37.980;23.748;2023-07-31T05:56:19;19.42;;;2.80;;
18302;SDS011;9277;37.980;23.748;2023-07-31T05:58:46;3.10;;;2.75;;
18302;SDS011;9277;37.980;23.748;2023-07-31T06:01:16;2.08;;;1.95;;
18302;SDS011;9277;37.980;23.748;2023-07-31T06:03:43;7.82;;;2.30;;
18302;SDS011;9277;37.980;23.748;2023-07-31T06:06:10;2.83;;;2.47;;
18302;SDS011;9277;37.980;23.748;2023-07-31T06:08:41;2.10;;;1.88;;
18302;SDS011;9277;37.980;23.748;2023-07-31T06:11:08;2.17;;;2.00;;
18302;SDS011;9277;37.980;23.748;2023-07-31T06:13:35;12.95;;;2.63;;
18302;SDS011;9277;37.980;23.748;2023-07-31T06:16:02;2.60;;;1.98;;
18302;SDS011;9277;37.980;23.748;2023-07-31T06:18:32;2.17;;;2.00;;
18302;SDS011;9277;37.980;23.748;2023-07-31T06:20:58;11.55;;;2.83;;
18302;SDS011;9277;37.980;23.748;2023-07-31T06:23:25;3.08;;;2.30;;
18302;SDS011;9277;37.980;23.748;2023-07-31T06:25:52;3.75;;;2.30;;
18302;SDS011;9277;37.980;23.748;2023-07-31T06:28:19;2.78;;;2.38;;
18302;SDS011;9277;37.980;23.748;2023-07-31T06:30:45;3.10;;;2.20;;
18302;SDS011;9277;37.980;23.748;2023-07-31T06:33:12;3.20;;;2.90;;
18302;SDS011;9277;37.980;23.748;2023-07-31T06:35:40;3.40;;;2.40;;
18302;SDS011;9277;37.980;23.748;2023-07-31T06:38:07;3.00;;;2.17;;
18302;SDS011;9277;37.980;23.748;2023-07-31T06:40:34;4.43;;;2.53;;
18302;SDS011;9277;37.980;23.748;2023-07-31T06:43:00;8.60;;;2.65;;
18302;SDS011;9277;37.980;23.748;2023-07-31T06:45:33;4.25;;;2.42;;
18302;SDS011;9277;37.980;23.748;2023-07-31T06:47:59;2.72;;;2.47;;
18302;SDS011;9277;37.980;23.748;2023-07-31T06:50:27;5.40;;;2.20;;
18302;SDS011;9277;37.980;23.748;2023-07-31T06:52:55;4.95;;;2.60;;
18302;SDS011;9277;37.980;23.748;2023-07-31T06:55:23;5.50;;;2.55;;
18302;SDS011;9277;37.980;23.748;2023-07-31T06:57:50;2.90;;;2.28;;
18302;SDS011;9277;37.980;23.748;2023-07-31T07:00:18;3.22;;;2.35;;
18302;SDS011;9277;37.980;23.748;2023-07-31T07:02:44;2.40;;;2.20;;
18302;SDS011;9277;37.980;23.748;2023-07-31T07:05:12;3.10;;;2.20;;
18302;SDS011;9277;37.980;23.748;2023-07-31T07:07:40;2.20;;;2.10;;
18302;SDS011;9277;37.980;23.748;2023-07-31T07:10:08;2.33;;;2.13;;
18302;SDS011;9277;37.980;23.748;2023-07-31T07:12:35;2.55;;;2.35;;
18302;SDS011;9277;37.980;23.748;2023-07-31T07:15:02;5.10;;;2.58;;
18302;SDS011;9277;37.980;23.748;2023-07-31T07:17:30;2.50;;;2.30;;
18302;SDS011;9277;37.980;23.748;2023-07-31T07:19:57;2.60;;;2.40;;
18302;SDS011;9277;37.980;23.748;2023-07-31T07:22:24;3.28;;;2.47;;
18302;SDS011;9277;37.980;23.748;2023-07-31T07:24:51;3.30;;;2.60;;
18302;SDS011;9277;37.980;23.748;2023-07-31T07:27:19;3.42;;;2.60;;
18302;SDS011;9277;37.980;23.748;2023-07-31T07:29:46;2.65;;;2.45;;
18302;SDS011;9277;37.980;23.748;2023-07-31T07:32:13;4.25;;;2.50;;
18302;SDS011;9277;37.980;23.748;2023-07-31T07:34:39;3.15;;;2.50;;
18302;SDS011;9277;37.980;23.748;2023-07-31T07:37:06;2.60;;;2.40;;
18302;SDS011;9277;37.980;23.748;2023-07-31T07:39:33;3.22;;;2.67;;
18302;SDS011;9277;37.980;23.748;2023-07-31T07:42:00;2.55;;;2.35;;
18302;SDS011;9277;37.980;23.748;2023-07-31T07:44:28;2.58;;;2.38;;
18302;SDS011;9277;37.980;23.748;2023-07-31T07:46:55;2.30;;;2.20;;
18302;SDS011;9277;37.980;23.748;2023-07-31T07:49:22;3.08;;;2.75;;
18302;SDS011;9277;37.980;23.748;2023-07-31T07:51:49;2.67;;;2.40;;
18302;SDS011;9277;37.980;23.748;2023-07-31T07:54:16;2.80;;;2.60;;
18302;SDS011;9277;37.980;23.748;2023-07-31T07:56:43;3.88;;;2.63;;
18302;SDS011;9277;37.980;23.748;2023-07-31T07:59:09;3.72;;;2.90;;
18302;SDS011;9277;37.980;23.748;2023-07-31T08:01:38;2.78;;;2.58;;
18302;SDS011;9277;37.980;23.748;2023-07-31T08:04:04;3.55;;;2.47;;
18302;SDS011;9277;37.980;23.748;2023-07-31T08:06:31;4.50;;;2.90;;
18302;SDS011;9277;37.980;23.748;2023-07-31T08:08:58;2.90;;;2.60;;
18302;SDS011;9277;37.980;23.748;2023-07-31T08:11:30;3.45;;;2.78;;
18302;SDS011;9277;37.980;23.748;2023-07-31T08:13:57;3.38;;;2.90;;
18302;SDS011;9277;37.980;23.748;2023-07-31T08:16:23;8.90;;;3.17;;
18302;SDS011;9277;37.980;23.748;2023-07-31T08:18:52;3.20;;;2.90;;
18302;SDS011;9277;37.980;23.748;2023-07-31T08:21:19;2.80;;;2.63;;
18302;SDS011;9277;37.980;23.748;2023-07-31T08:23:45;4.18;;;3.17;;
18302;SDS011;9277;37.980;23.748;2023-07-31T08:26:14;3.13;;;2.80;;
18302;SDS011;9277;37.980;23.748;2023-07-31T08:28:41;3.47;;;3.17;;
18302;SDS011;9277;37.980;23.748;2023-07-31T08:31:08;3.50;;;3.08;;
18302;SDS011;9277;37.980;23.748;2023-07-31T08:33:38;3.10;;;2.80;;
18302;SDS011;9277;37.980;23.748;2023-07-31T08:36:08;3.38;;;3.13;;
18302;SDS011;9277;37.980;23.748;2023-07-31T08:38:34;3.42;;;2.70;;
18302;SDS011;9277;37.980;23.748;2023-07-31T08:41:02;3.28;;;2.97;;
18302;SDS011;9277;37.980;23.748;2023-07-31T08:43:29;3.30;;;3.00;;
18302;SDS011;9277;37.980;23.748;2023-07-31T08:45:56;3.35;;;2.78;;
18302;SDS011;9277;37.980;23.748;2023-07-31T08:48:23;2.90;;;2.70;;
18302;SDS011;9277;37.980;23.748;2023-07-31T08:50:51;3.10;;;2.80;;
18302;SDS011;9277;37.980;23.748;2023-07-31T08:53:19;3.40;;;3.10;;
18302;SDS011;9277;37.980;23.748;2023-07-31T08:55:46;3.33;;;2.83;;
18302;SDS011;9277;37.980;23.748;2023-07-31T08:58:14;4.63;;;2.83;;
18302;SDS011;9277;37.980;23.748;2023-07-31T09:00:41;4.05;;;3.13;;
18302;SDS011;9277;37.980;23.748;2023-07-31T09:03:09;3.20;;;2.90;;
18302;SDS011;9277;37.980;23.748;2023-07-31T09:05:38;4.30;;;3.20;;
18302;SDS011;9277;37.980;23.748;2023-07-31T09:08:08;3.88;;;2.65;;
18302;SDS011;9277;37.980;23.748;2023-07-31T09:10:37;3.20;;;2.90;;
18302;SDS011;9277;37.980;23.748;2023-07-31T09:13:06;4.15;;;3.08;;
18302;SDS011;9277;37.980;23.748;2023-07-31T09:15:33;3.00;;;2.80;;
18302;SDS011;9277;37.980;23.748;2023-07-31T09:18:01;3.17;;;2.83;;
18302;SDS011;9277;37.980;23.748;2023-07-31T09:20:28;5.30;;;2.78;;
18302;SDS011;9277;37.980;23.748;2023-07-31T09:22:55;4.22;;;3.08;;
18302;SDS011;9277;37.980;23.748;2023-07-31T09:25:23;5.47;;;2.88;;
18302;SDS011;9277;37.980;23.748;2023-07-31T09:27:52;3.80;;;3.10;;
18302;SDS011;9277;37.980;23.748;2023-07-31T09:30:19;3.80;;;2.95;;
18302;SDS011;9277;37.980;23.748;2023-07-31T09:32:47;3.28;;;2.90;;
18302;SDS011;9277;37.980;23.748;2023-07-31T09:35:14;3.47;;;3.17;;
18302;SDS011;9277;37.980;23.748;2023-07-31T09:37:47;4.07;;;3.00;;
18302;SDS011;9277;37.980;23.748;2023-07-31T09:40:24;3.35;;;2.83;;
18302;SDS011;9277;37.980;23.748;2023-07-31T09:42:52;3.05;;;2.78;;
18302;SDS011;9277;37.980;23.748;2023-07-31T09:45:19;3.30;;;3.00;;
18302;SDS011;9277;37.980;23.748;2023-07-31T09:47:46;3.10;;;2.50;;
18302;SDS011;9277;37.980;23.748;2023-07-31T09:50:13;2.75;;;2.40;;
18302;SDS011;9277;37.980;23.748;2023-07-31T09:52:40;4.63;;;2.35;;
18302;SDS011;9277;37.980;23.748;2023-07-31T09:55:07;3.22;;;2.50;;
18302;SDS011;9277;37.980;23.748;2023-07-31T09:57:34;2.60;;;2.40;;
18302;SDS011;9277;37.980;23.748;2023-07-31T10:00:06;3.40;;;2.00;;
18302;SDS011;9277;37.980;23.748;2023-07-31T10:02:34;2.33;;;2.10;;
18302;SDS011;9277;37.980;23.748;2023-07-31T10:05:02;2.00;;;1.85;;
18302;SDS011;9277;37.980;23.748;2023-07-31T10:07:29;3.00;;;2.28;;
18302;SDS011;9277;37.980;23.748;2023-07-31T10:09:57;3.35;;;2.17;;
18302;SDS011;9277;37.980;23.748;2023-07-31T10:12:25;2.70;;;2.35;;
18302;SDS011;9277;37.980;23.748;2023-07-31T10:14:53;1.88;;;1.77;;
18302;SDS011;9277;37.980;23.748;2023-07-31T10:17:22;2.97;;;2.35;;
18302;SDS011;9277;37.980;23.748;2023-07-31T10:19:52;2.38;;;2.28;;
18302;SDS011;9277;37.980;23.748;2023-07-31T10:22:19;3.45;;;1.92;;
18302;SDS011;9277;37.980;23.748;2023-07-31T10:24:47;5.88;;;1.90;;
18302;SDS011;9277;37.980;23.748;2023-07-31T10:27:15;2.20;;;2.10;;
18302;SDS011;9277;37.980;23.748;2023-07-31T10:29:42;2.00;;;1.90;;
18302;SDS011;9277;37.980;23.748;2023-07-31T10:32:10;5.53;;;2.00;;
18302;SDS011;9277;37.980;23.748;2023-07-31T10:34:40;2.08;;;1.88;;
18302;SDS011;9277;37.980;23.748;2023-07-31T10:39:58;3.92;;;1.77;;
18302;SDS011;9277;37.980;23.748;2023-07-31T10:42:31;1.90;;;1.80;;
18302;SDS011;9277;37.980;23.748;2023-07-31T10:44:59;2.10;;;1.80;;
18302;SDS011;9277;37.980;23.748;2023-07-31T10:47:27;1.90;;;1.80;;
18302;SDS011;9277;37.980;23.748;2023-07-31T10:52:36;1.70;;;1.60;;
18302;SDS011;9277;37.980;23.748;2023-07-31T10:55:13;2.13;;;1.70;;
18302;SDS011;9277;37.980;23.748;2023-07-31T10:57:40;3.65;;;1.80;;
18302;SDS011;9277;37.980;23.748;2023-07-31T11:00:20;1.88;;;1.77;;
18302;SDS011;9277;37.980;23.748;2023-07-31T11:02:57;2.40;;;1.90;;
18302;SDS011;9277;37.980;23.748;2023-07-31T11:08:11;4.00;;;2.40;;
18302;SDS011;9277;37.980;23.748;2023-07-31T11:10:38;2.20;;;1.75;;
18302;SDS011;9277;37.980;23.748;2023-07-31T11:13:04;2.00;;;1.85;;
18302;SDS011;9277;37.980;23.748;2023-07-31T11:15:31;2.05;;;1.95;;
18302;SDS011;9277;37.980;23.748;2023-07-31T11:17:59;4.22;;;1.55;;
18302;SDS011;9277;37.980;23.748;2023-07-31T11:20:29;2.88;;;1.90;;
18302;SDS011;9277;37.980;23.748;2023-07-31T11:22:57;1.60;;;1.50;;
18302;SDS011;9277;37.980;23.748;2023-07-31T11:25:26;3.38;;;1.70;;
18302;SDS011;9277;37.980;23.748;2023-07-31T11:27:52;2.25;;;1.60;;
18302;SDS011;9277;37.980;23.748;2023-07-31T11:30:21;1.80;;;1.70;;
18302;SDS011;9277;37.980;23.748;2023-07-31T11:32:48;1.90;;;1.80;;
18302;SDS011;9277;37.980;23.748;2023-07-31T11:35:15;1.83;;;1.70;;
18302;SDS011;9277;37.980;23.748;2023-07-31T11:37:42;1.80;;;1.70;;
18302;SDS011;9277;37.980;23.748;2023-07-31T11:40:09;2.50;;;1.75;;
18302;SDS011;9277;37.980;23.748;2023-07-31T11:42:37;2.90;;;1.60;;
18302;SDS011;9277;37.980;23.748;2023-07-31T11:45:04;3.00;;;2.00;;
18302;SDS011;9277;37.980;23.748;2023-07-31T11:47:32;2.10;;;1.90;;
18302;SDS011;9277;37.980;23.748;2023-07-31T11:49:59;2.70;;;1.67;;
18302;SDS011;9277;37.980;23.748;2023-07-31T11:52:26;4.13;;;1.65;;
18302;SDS011;9277;37.980;23.748;2023-07-31T11:54:53;1.80;;;1.70;;
18302;SDS011;9277;37.980;23.748;2023-07-31T11:57:20;1.83;;;1.73;;
18302;SDS011;9277;37.980;23.748;2023-07-31T11:59:49;1.80;;;1.70;;
18302;SDS011;9277;37.980;23.748;2023-07-31T12:02:16;1.95;;;1.85;;
18302;SDS011;9277;37.980;23.748;2023-07-31T12:04:43;1.58;;;1.48;;
18302;SDS011;9277;37.980;23.748;2023-07-31T12:07:11;2.22;;;1.75;;
18302;SDS011;9277;37.980;23.748;2023-07-31T12:09:38;1.95;;;1.45;;
18302;SDS011;9277;37.980;23.748;2023-07-31T12:12:19;3.45;;;1.85;;
18302;SDS011;9277;37.980;23.748;2023-07-31T12:14:45;3.20;;;1.80;;
18302;SDS011;9277;37.980;23.748;2023-07-31T12:17:14;3.25;;;2.13;;
18302;SDS011;9277;37.980;23.748;2023-07-31T12:19:41;1.70;;;1.60;;
18302;SDS011;9277;37.980;23.748;2023-07-31T12:22:11;2.05;;;1.83;;
18302;SDS011;9277;37.980;23.748;2023-07-31T12:24:39;3.28;;;1.90;;
18302;SDS011;9277;37.980;23.748;2023-07-31T12:27:09;1.98;;;1.88;;
18302;SDS011;9277;37.980;23.748;2023-07-31T12:29:36;1.90;;;1.80;;
18302;SDS011;9277;37.980;23.748;2023-07-31T12:32:03;2.25;;;1.85;;
18302;SDS011;9277;37.980;23.748;2023-07-31T12:34:35;7.30;;;2.50;;
18302;SDS011;9277;37.980;23.748;2023-07-31T12:37:08;1.77;;;1.67;;
18302;SDS011;9277;37.980;23.748;2023-07-31T12:39:35;1.70;;;1.60;;
18302;SDS011;9277;37.980;23.748;2023-07-31T12:42:02;5.85;;;2.00;;
18302;SDS011;9277;37.980;23.748;2023-07-31T12:44:29;1.90;;;1.80;;
18302;SDS011;9277;37.980;23.748;2023-07-31T12:46:55;2.10;;;1.90;;
18302;SDS011;9277;37.980;23.748;2023-07-31T12:49:22;2.03;;;1.92;;
18302;SDS011;9277;37.980;23.748;2023-07-31T12:51:51;2.20;;;2.10;;
18302;SDS011;9277;37.980;23.748;2023-07-31T12:54:19;1.67;;;1.50;;
18302;SDS011;9277;37.980;23.748;2023-07-31T12:56:45;2.30;;;2.03;;
18302;SDS011;9277;37.980;23.748;2023-07-31T12:59:12;2.10;;;1.98;;
18302;SDS011;9277;37.980;23.748;2023-07-31T13:01:39;2.00;;;1.80;;
18302;SDS011;9277;37.980;23.748;2023-07-31T13:04:06;2.80;;;1.98;;
18302;SDS011;9277;37.980;23.748;2023-07-31T13:06:33;2.22;;;2.03;;
18302;SDS011;9277;37.980;23.748;2023-07-31T13:09:01;2.45;;;2.03;;
18302;SDS011;9277;37.980;23.748;2023-07-31T13:11:29;2.10;;;2.00;;
18302;SDS011;9277;37.980;23.748;2023-07-31T13:13:56;1.90;;;1.80;;
18302;SDS011;9277;37.980;23.748;2023-07-31T13:16:22;3.10;;;1.90;;
18302;SDS011;9277;37.980;23.748;2023-07-31T13:18:49;2.53;;;2.00;;
18302;SDS011;9277;37.980;23.748;2023-07-31T13:21:17;2.15;;;1.92;;
18302;SDS011;9277;37.980;23.748;2023-07-31T13:23:43;2.15;;;1.90;;
18302;SDS011;9277;37.980;23.748;2023-07-31T13:26:11;2.35;;;2.08;;
18302;SDS011;9277;37.980;23.748;2023-07-31T13:28:38;4.93;;;2.20;;
18302;SDS011;9277;37.980;23.748;2023-07-31T13:31:05;1.95;;;1.83;;
18302;SDS011;9277;37.980;23.748;2023-07-31T13:33:32;3.65;;;1.92;;
18302;SDS011;9277;37.980;23.748;2023-07-31T13:35:58;2.17;;;1.90;;
18302;SDS011;9277;37.980;23.748;2023-07-31T13:38:25;2.80;;;1.98;;
18302;SDS011;9277;37.980;23.748;2023-07-31T13:40:52;2.33;;;1.80;;
18302;SDS011;9277;37.980;23.748;2023-07-31T13:43:20;5.50;;;2.08;;
18302;SDS011;9277;37.980;23.748;2023-07-31T13:45:47;3.35;;;2.00;;
18302;SDS011;9277;37.980;23.748;2023-07-31T13:48:14;3.03;;;2.03;;
18302;SDS011;9277;37.980;23.748;2023-07-31T13:50:41;3.85;;;2.03;;
18302;SDS011;9277;37.980;23.748;2023-07-31T13:53:07;1.85;;;1.75;;
18302;SDS011;9277;37.980;23.748;2023-07-31T13:55:34;2.67;;;2.03;;
18302;SDS011;9277;37.980;23.748;2023-07-31T13:58:01;6.43;;;2.15;;
18302;SDS011;9277;37.980;23.748;2023-07-31T14:00:29;2.22;;;2.03;;
18302;SDS011;9277;37.980;23.748;2023-07-31T14:02:56;4.15;;;2.10;;
18302;SDS011;9277;37.980;23.748;2023-07-31T14:05:23;3.33;;;2.50;;
18302;SDS011;9277;37.980;23.748;2023-07-31T14:07:50;2.30;;;1.83;;
18302;SDS011;9277;37.980;23.748;2023-07-31T14:10:17;2.00;;;1.90;;
18302;SDS011;9277;37.980;23.748;2023-07-31T14:12:44;2.25;;;2.05;;
18302;SDS011;9277;37.980;23.748;2023-07-31T14:15:10;3.58;;;2.42;;
18302;SDS011;9277;37.980;23.748;2023-07-31T14:17:39;5.55;;;2.85;;
18302;SDS011;9277;37.980;23.748;2023-07-31T14:20:06;2.15;;;2.03;;
18302;SDS011;9277;37.980;23.748;2023-07-31T14:22:33;2.40;;;2.20;;
18302;SDS011;9277;37.980;23.748;2023-07-31T14:25:00;3.05;;;2.40;;
18302;SDS011;9277;37.980;23.748;2023-07-31T14:27:27;2.20;;;2.10;;
18302;SDS011;9277;37.980;23.748;2023-07-31T14:29:53;2.05;;;1.95;;
18302;SDS011;9277;37.980;23.748;2023-07-31T14:32:20;2.03;;;1.88;;
18302;SDS011;9277;37.980;23.748;2023-07-31T14:34:50;2.78;;;2.20;;
18302;SDS011;9277;37.980;23.748;2023-07-31T14:37:16;2.38;;;2.08;;
18302;SDS011;9277;37.980;23.748;2023-07-31T14:39:43;2.47;;;2.20;;
18302;SDS011;9277;37.980;23.748;2023-07-31T14:42:10;3.47;;;2.10;;
18302;SDS011;9277;37.980;23.748;2023-07-31T14:44:36;2.38;;;2.05;;
18302;SDS011;9277;37.980;23.748;2023-07-31T14:47:03;2.60;;;2.30;;
18302;SDS011;9277;37.980;23.748;2023-07-31T14:49:30;3.38;;;2.10;;
18302;SDS011;9277;37.980;23.748;2023-07-31T14:51:58;2.50;;;2.28;;
18302;SDS011;9277;37.980;23.748;2023-07-31T14:54:25;2.30;;;2.20;;
18302;SDS011;9277;37.980;23.748;2023-07-31T14:56:52;2.38;;;2.17;;